sensor_id;sensor_type;location;lat;lon;timestamp;P1;durP1;ratioP1;P2;durP2;ratioP2
81306;SDS011;70775;50.846;3.224;2023-08-17T00:01:17;17.65;;;12.30;;
81306;SDS011;70775;50.846;3.224;2023-08-17T00:03:50;16.83;;;12.02;;
81306;SDS011;70775;50.846;3.224;2023-08-17T00:06:16;18.20;;;12.07;;
81306;SDS011;70775;50.846;3.224;2023-08-17T00:08:41;16.17;;;12.25;;
81306;SDS011;70775;50.846;3.224;2023-08-17T00:11:07;19.63;;;13.00;;
81306;SDS011;70775;50.846;3.224;2023-08-17T00:16:03;15.88;;;12.45;;
81306;SDS011;70775;50.846;3.224;2023-08-17T00:18:29;17.13;;;12.45;;
81306;SDS011;70775;50.846;3.224;2023-08-17T00:20:56;17.70;;;12.93;;
81306;SDS011;70775;50.846;3.224;2023-08-17T00:29:40;18.25;;;13.07;;
81306;SDS011;70775;50.846;3.224;2023-08-17T00:41:24;18.20;;;13.30;;
81306;SDS011;70775;50.846;3.224;2023-08-17T00:43:59;18.10;;;12.73;;
81306;SDS011;70775;50.846;3.224;2023-08-17T00:49:43;18.08;;;13.00;;
81306;SDS011;70775;50.846;3.224;2023-08-17T00:52:09;16.27;;;13.35;;
81306;SDS011;70775;50.846;3.224;2023-08-17T00:54:35;18.00;;;13.13;;
81306;SDS011;70775;50.846;3.224;2023-08-17T00:57:01;19.33;;;14.18;;
81306;SDS011;70775;50.846;3.224;2023-08-17T00:59:28;20.65;;;13.98;;
81306;SDS011;70775;50.846;3.224;2023-08-17T01:01:54;20.45;;;14.25;;
81306;SDS011;70775;50.846;3.224;2023-08-17T01:07:18;19.15;;;15.35;;
81306;SDS011;70775;50.846;3.224;2023-08-17T01:09:44;19.88;;;15.60;;
81306;SDS011;70775;50.846;3.224;2023-08-17T01:20:47;18.27;;;13.73;;
81306;SDS011;70775;50.846;3.224;2023-08-17T01:26:12;16.67;;;14.00;;
81306;SDS011;70775;50.846;3.224;2023-08-17T01:28:40;18.52;;;14.18;;
81306;SDS011;70775;50.846;3.224;2023-08-17T01:34:33;17.17;;;13.88;;
81306;SDS011;70775;50.846;3.224;2023-08-17T01:37:09;17.88;;;14.60;;
81306;SDS011;70775;50.846;3.224;2023-08-17T01:39:39;16.90;;;13.15;;
81306;SDS011;70775;50.846;3.224;2023-08-17T01:42:15;18.25;;;14.43;;
81306;SDS011;70775;50.846;3.224;2023-08-17T01:44:42;15.98;;;13.43;;
81306;SDS011;70775;50.846;3.224;2023-08-17T01:47:10;19.17;;;14.63;;
81306;SDS011;70775;50.846;3.224;2023-08-17T01:49:36;18.40;;;12.98;;
81306;SDS011;70775;50.846;3.224;2023-08-17T01:52:02;17.63;;;14.05;;
81306;SDS011;70775;50.846;3.224;2023-08-17T01:54:41;17.80;;;13.98;;
81306;SDS011;70775;50.846;3.224;2023-08-17T01:59:57;17.02;;;14.00;;
81306;SDS011;70775;50.846;3.224;2023-08-17T02:04:51;21.20;;;13.80;;
81306;SDS011;70775;50.846;3.224;2023-08-17T02:10:24;16.55;;;13.80;;
81306;SDS011;70775;50.846;3.224;2023-08-17T02:12:50;21.35;;;13.82;;
81306;SDS011;70775;50.846;3.224;2023-08-17T02:15:15;15.43;;;12.98;;
81306;SDS011;70775;50.846;3.224;2023-08-17T02:17:41;19.27;;;13.90;;
81306;SDS011;70775;50.846;3.224;2023-08-17T02:23:07;15.93;;;13.55;;
81306;SDS011;70775;50.846;3.224;2023-08-17T02:25:39;17.65;;;13.77;;
81306;SDS011;70775;50.846;3.224;2023-08-17T02:31:05;18.50;;;12.48;;
81306;SDS011;70775;50.846;3.224;2023-08-17T02:36:53;16.67;;;12.15;;
81306;SDS011;70775;50.846;3.224;2023-08-17T02:39:18;18.67;;;12.38;;
81306;SDS011;70775;50.846;3.224;2023-08-17T02:41:44;15.32;;;12.38;;
81306;SDS011;70775;50.846;3.224;2023-08-17T02:44:17;13.52;;;11.48;;
81306;SDS011;70775;50.846;3.224;2023-08-17T02:52:19;19.38;;;11.82;;
81306;SDS011;70775;50.846;3.224;2023-08-17T02:54:44;18.73;;;12.02;;
81306;SDS011;70775;50.846;3.224;2023-08-17T02:57:10;15.40;;;11.82;;
81306;SDS011;70775;50.846;3.224;2023-08-17T02:59:38;14.93;;;10.85;;
81306;SDS011;70775;50.846;3.224;2023-08-17T03:08:46;12.45;;;10.52;;
81306;SDS011;70775;50.846;3.224;2023-08-17T03:11:22;14.20;;;10.75;;
81306;SDS011;70775;50.846;3.224;2023-08-17T03:13:47;18.58;;;11.40;;
81306;SDS011;70775;50.846;3.224;2023-08-17T03:16:20;17.73;;;10.93;;
81306;SDS011;70775;50.846;3.224;2023-08-17T03:18:46;16.73;;;11.23;;
81306;SDS011;70775;50.846;3.224;2023-08-17T03:21:20;16.48;;;11.15;;
81306;SDS011;70775;50.846;3.224;2023-08-17T03:26:31;15.70;;;11.23;;
81306;SDS011;70775;50.846;3.224;2023-08-17T03:31:53;15.68;;;11.68;;
81306;SDS011;70775;50.846;3.224;2023-08-17T03:34:19;15.05;;;11.88;;
81306;SDS011;70775;50.846;3.224;2023-08-17T03:36:44;18.17;;;11.80;;
81306;SDS011;70775;50.846;3.224;2023-08-17T03:41:49;16.52;;;11.02;;
81306;SDS011;70775;50.846;3.224;2023-08-17T03:44:14;16.33;;;11.52;;
81306;SDS011;70775;50.846;3.224;2023-08-17T03:50:02;14.60;;;10.13;;
81306;SDS011;70775;50.846;3.224;2023-08-17T03:52:28;14.40;;;9.85;;
81306;SDS011;70775;50.846;3.224;2023-08-17T03:54:54;13.82;;;9.98;;
81306;SDS011;70775;50.846;3.224;2023-08-17T04:02:25;16.02;;;11.70;;
81306;SDS011;70775;50.846;3.224;2023-08-17T04:04:59;18.58;;;11.45;;
81306;SDS011;70775;50.846;3.224;2023-08-17T04:10:47;15.57;;;11.68;;
81306;SDS011;70775;50.846;3.224;2023-08-17T04:13:29;19.08;;;12.15;;
81306;SDS011;70775;50.846;3.224;2023-08-17T04:15:55;16.10;;;11.15;;
81306;SDS011;70775;50.846;3.224;2023-08-17T04:18:23;14.15;;;10.20;;
81306;SDS011;70775;50.846;3.224;2023-08-17T04:20:55;14.90;;;10.63;;
81306;SDS011;70775;50.846;3.224;2023-08-17T04:23:23;16.95;;;10.68;;
81306;SDS011;70775;50.846;3.224;2023-08-17T04:28:40;14.23;;;10.32;;
81306;SDS011;70775;50.846;3.224;2023-08-17T04:31:21;16.20;;;10.38;;
81306;SDS011;70775;50.846;3.224;2023-08-17T04:33:46;13.95;;;10.57;;
81306;SDS011;70775;50.846;3.224;2023-08-17T04:36:12;17.02;;;10.68;;
81306;SDS011;70775;50.846;3.224;2023-08-17T04:38:38;14.23;;;10.45;;
81306;SDS011;70775;50.846;3.224;2023-08-17T04:41:03;18.10;;;11.85;;
81306;SDS011;70775;50.846;3.224;2023-08-17T04:43:29;15.73;;;10.70;;
81306;SDS011;70775;50.846;3.224;2023-08-17T04:49:14;15.63;;;10.57;;
81306;SDS011;70775;50.846;3.224;2023-08-17T04:51:39;15.68;;;10.50;;
81306;SDS011;70775;50.846;3.224;2023-08-17T04:54:05;15.25;;;9.95;;
81306;SDS011;70775;50.846;3.224;2023-08-17T04:56:30;14.93;;;9.35;;
81306;SDS011;70775;50.846;3.224;2023-08-17T04:59:03;14.85;;;9.63;;
81306;SDS011;70775;50.846;3.224;2023-08-17T05:01:38;15.75;;;9.25;;
81306;SDS011;70775;50.846;3.224;2023-08-17T05:04:14;18.20;;;9.85;;
81306;SDS011;70775;50.846;3.224;2023-08-17T05:06:40;15.88;;;9.98;;
81306;SDS011;70775;50.846;3.224;2023-08-17T05:09:14;16.70;;;10.20;;
81306;SDS011;70775;50.846;3.224;2023-08-17T05:11:39;13.32;;;9.30;;
81306;SDS011;70775;50.846;3.224;2023-08-17T05:14:05;19.38;;;10.73;;
81306;SDS011;70775;50.846;3.224;2023-08-17T05:16:32;13.70;;;9.48;;
81306;SDS011;70775;50.846;3.224;2023-08-17T05:18:58;14.57;;;9.52;;
81306;SDS011;70775;50.846;3.224;2023-08-17T05:21:26;12.63;;;8.88;;
81306;SDS011;70775;50.846;3.224;2023-08-17T05:23:57;15.60;;;9.63;;
81306;SDS011;70775;50.846;3.224;2023-08-17T05:32:07;15.75;;;9.80;;
81306;SDS011;70775;50.846;3.224;2023-08-17T05:34:32;12.60;;;8.27;;
81306;SDS011;70775;50.846;3.224;2023-08-17T05:36:58;12.77;;;8.50;;
81306;SDS011;70775;50.846;3.224;2023-08-17T05:39:24;13.23;;;8.75;;
81306;SDS011;70775;50.846;3.224;2023-08-17T05:41:49;12.90;;;9.98;;
81306;SDS011;70775;50.846;3.224;2023-08-17T05:44:15;14.30;;;8.57;;
81306;SDS011;70775;50.846;3.224;2023-08-17T05:46:43;15.68;;;9.15;;
81306;SDS011;70775;50.846;3.224;2023-08-17T05:49:09;17.35;;;9.00;;
81306;SDS011;70775;50.846;3.224;2023-08-17T05:51:34;17.92;;;9.25;;
81306;SDS011;70775;50.846;3.224;2023-08-17T05:54:00;17.88;;;9.27;;
81306;SDS011;70775;50.846;3.224;2023-08-17T05:56:29;17.23;;;9.15;;
81306;SDS011;70775;50.846;3.224;2023-08-17T05:58:54;19.42;;;9.73;;
81306;SDS011;70775;50.846;3.224;2023-08-17T06:01:20;15.38;;;9.77;;
81306;SDS011;70775;50.846;3.224;2023-08-17T06:03:45;15.32;;;9.85;;
81306;SDS011;70775;50.846;3.224;2023-08-17T06:06:11;16.40;;;10.65;;
81306;SDS011;70775;50.846;3.224;2023-08-17T06:08:37;15.23;;;9.73;;
81306;SDS011;70775;50.846;3.224;2023-08-17T06:11:02;16.55;;;9.15;;
81306;SDS011;70775;50.846;3.224;2023-08-17T06:13:28;13.73;;;8.63;;
81306;SDS011;70775;50.846;3.224;2023-08-17T06:15:55;13.65;;;8.45;;
81306;SDS011;70775;50.846;3.224;2023-08-17T06:18:21;13.18;;;7.75;;
81306;SDS011;70775;50.846;3.224;2023-08-17T06:20:47;12.45;;;7.75;;
81306;SDS011;70775;50.846;3.224;2023-08-17T06:23:15;14.35;;;7.80;;
81306;SDS011;70775;50.846;3.224;2023-08-17T06:25:41;10.45;;;7.65;;
81306;SDS011;70775;50.846;3.224;2023-08-17T06:28:06;25.02;;;9.75;;
81306;SDS011;70775;50.846;3.224;2023-08-17T06:30:32;12.73;;;7.50;;
81306;SDS011;70775;50.846;3.224;2023-08-17T06:32:58;13.20;;;6.88;;
81306;SDS011;70775;50.846;3.224;2023-08-17T06:35:24;15.38;;;7.35;;
81306;SDS011;70775;50.846;3.224;2023-08-17T06:37:49;10.40;;;7.72;;
81306;SDS011;70775;50.846;3.224;2023-08-17T06:40:16;11.55;;;7.63;;
81306;SDS011;70775;50.846;3.224;2023-08-17T06:42:42;12.13;;;7.72;;
81306;SDS011;70775;50.846;3.224;2023-08-17T06:45:07;11.98;;;7.85;;
81306;SDS011;70775;50.846;3.224;2023-08-17T06:47:33;10.73;;;7.38;;
81306;SDS011;70775;50.846;3.224;2023-08-17T06:49:59;12.55;;;7.25;;
81306;SDS011;70775;50.846;3.224;2023-08-17T06:52:25;11.20;;;7.18;;
81306;SDS011;70775;50.846;3.224;2023-08-17T06:54:50;13.27;;;7.20;;
81306;SDS011;70775;50.846;3.224;2023-08-17T06:57:16;11.27;;;7.47;;
81306;SDS011;70775;50.846;3.224;2023-08-17T06:59:41;9.75;;;6.65;;
81306;SDS011;70775;50.846;3.224;2023-08-17T07:02:10;10.52;;;6.40;;
81306;SDS011;70775;50.846;3.224;2023-08-17T07:04:36;13.93;;;7.15;;
81306;SDS011;70775;50.846;3.224;2023-08-17T07:07:02;13.63;;;7.60;;
81306;SDS011;70775;50.846;3.224;2023-08-17T07:09:28;11.13;;;7.55;;
81306;SDS011;70775;50.846;3.224;2023-08-17T07:11:53;12.55;;;7.38;;
81306;SDS011;70775;50.846;3.224;2023-08-17T07:14:19;10.88;;;6.88;;
81306;SDS011;70775;50.846;3.224;2023-08-17T07:16:45;11.02;;;7.57;;
81306;SDS011;70775;50.846;3.224;2023-08-17T07:19:10;15.50;;;7.43;;
81306;SDS011;70775;50.846;3.224;2023-08-17T07:21:38;10.48;;;7.32;;
81306;SDS011;70775;50.846;3.224;2023-08-17T07:27:35;10.07;;;6.18;;
81306;SDS011;70775;50.846;3.224;2023-08-17T07:30:01;13.55;;;6.78;;
81306;SDS011;70775;50.846;3.224;2023-08-17T07:32:27;13.38;;;6.88;;
81306;SDS011;70775;50.846;3.224;2023-08-17T07:34:52;11.25;;;6.35;;
81306;SDS011;70775;50.846;3.224;2023-08-17T07:37:18;12.48;;;6.85;;
81306;SDS011;70775;50.846;3.224;2023-08-17T07:39:45;13.02;;;6.72;;
81306;SDS011;70775;50.846;3.224;2023-08-17T07:42:10;15.18;;;7.88;;
81306;SDS011;70775;50.846;3.224;2023-08-17T07:44:36;9.40;;;6.82;;
81306;SDS011;70775;50.846;3.224;2023-08-17T07:47:04;10.48;;;6.78;;
81306;SDS011;70775;50.846;3.224;2023-08-17T07:49:29;15.77;;;7.18;;
81306;SDS011;70775;50.846;3.224;2023-08-17T07:51:55;10.65;;;6.30;;
81306;SDS011;70775;50.846;3.224;2023-08-17T07:54:20;11.73;;;7.05;;
81306;SDS011;70775;50.846;3.224;2023-08-17T07:56:46;9.70;;;6.10;;
81306;SDS011;70775;50.846;3.224;2023-08-17T07:59:12;12.68;;;6.57;;
81306;SDS011;70775;50.846;3.224;2023-08-17T08:01:37;10.38;;;6.68;;
81306;SDS011;70775;50.846;3.224;2023-08-17T08:04:04;13.23;;;8.15;;
81306;SDS011;70775;50.846;3.224;2023-08-17T08:06:31;10.02;;;6.47;;
81306;SDS011;70775;50.846;3.224;2023-08-17T08:08:57;12.32;;;6.35;;
81306;SDS011;70775;50.846;3.224;2023-08-17T08:11:23;9.57;;;6.45;;
81306;SDS011;70775;50.846;3.224;2023-08-17T08:13:52;9.48;;;5.90;;
81306;SDS011;70775;50.846;3.224;2023-08-17T08:16:18;7.65;;;5.75;;
81306;SDS011;70775;50.846;3.224;2023-08-17T08:18:43;8.27;;;6.50;;
81306;SDS011;70775;50.846;3.224;2023-08-17T08:21:09;9.40;;;6.63;;
81306;SDS011;70775;50.846;3.224;2023-08-17T08:23:34;11.63;;;6.13;;
81306;SDS011;70775;50.846;3.224;2023-08-17T08:26:00;10.52;;;6.45;;
81306;SDS011;70775;50.846;3.224;2023-08-17T08:28:26;11.90;;;5.68;;
81306;SDS011;70775;50.846;3.224;2023-08-17T08:30:52;8.60;;;5.53;;
81306;SDS011;70775;50.846;3.224;2023-08-17T08:33:18;10.52;;;6.53;;
81306;SDS011;70775;50.846;3.224;2023-08-17T08:35:43;10.60;;;6.38;;
81306;SDS011;70775;50.846;3.224;2023-08-17T08:38:10;12.00;;;5.95;;
81306;SDS011;70775;50.846;3.224;2023-08-17T08:40:36;9.45;;;6.35;;
81306;SDS011;70775;50.846;3.224;2023-08-17T08:43:03;14.10;;;7.03;;
81306;SDS011;70775;50.846;3.224;2023-08-17T08:45:29;10.63;;;6.68;;
81306;SDS011;70775;50.846;3.224;2023-08-17T08:47:56;15.40;;;7.35;;
81306;SDS011;70775;50.846;3.224;2023-08-17T08:50:25;11.23;;;5.80;;
81306;SDS011;70775;50.846;3.224;2023-08-17T08:52:58;9.25;;;5.95;;
81306;SDS011;70775;50.846;3.224;2023-08-17T08:55:37;10.15;;;5.97;;
81306;SDS011;70775;50.846;3.224;2023-08-17T08:58:04;11.60;;;6.38;;
81306;SDS011;70775;50.846;3.224;2023-08-17T09:00:30;12.38;;;5.95;;
81306;SDS011;70775;50.846;3.224;2023-08-17T09:02:57;14.25;;;6.47;;
81306;SDS011;70775;50.846;3.224;2023-08-17T09:05:24;15.27;;;6.63;;
81306;SDS011;70775;50.846;3.224;2023-08-17T09:07:50;14.27;;;6.15;;
81306;SDS011;70775;50.846;3.224;2023-08-17T09:10:18;11.63;;;6.85;;
81306;SDS011;70775;50.846;3.224;2023-08-17T09:12:45;12.85;;;6.82;;
81306;SDS011;70775;50.846;3.224;2023-08-17T09:15:12;10.57;;;6.38;;
81306;SDS011;70775;50.846;3.224;2023-08-17T09:17:38;11.20;;;6.32;;
81306;SDS011;70775;50.846;3.224;2023-08-17T09:20:03;13.15;;;7.18;;
81306;SDS011;70775;50.846;3.224;2023-08-17T09:22:39;13.73;;;7.47;;
81306;SDS011;70775;50.846;3.224;2023-08-17T09:25:07;12.90;;;6.88;;
81306;SDS011;70775;50.846;3.224;2023-08-17T09:27:33;14.02;;;6.95;;
81306;SDS011;70775;50.846;3.224;2023-08-17T09:30:01;21.00;;;8.32;;
81306;SDS011;70775;50.846;3.224;2023-08-17T09:32:31;12.90;;;6.88;;
81306;SDS011;70775;50.846;3.224;2023-08-17T09:35:00;15.07;;;7.47;;
81306;SDS011;70775;50.846;3.224;2023-08-17T09:37:30;13.23;;;7.43;;
81306;SDS011;70775;50.846;3.224;2023-08-17T09:39:56;14.38;;;6.90;;
81306;SDS011;70775;50.846;3.224;2023-08-17T09:42:22;13.75;;;7.30;;
81306;SDS011;70775;50.846;3.224;2023-08-17T09:44:48;19.85;;;7.95;;
81306;SDS011;70775;50.846;3.224;2023-08-17T09:47:16;12.65;;;7.38;;
81306;SDS011;70775;50.846;3.224;2023-08-17T09:49:47;13.30;;;7.55;;
81306;SDS011;70775;50.846;3.224;2023-08-17T09:52:20;16.65;;;7.40;;
81306;SDS011;70775;50.846;3.224;2023-08-17T09:54:52;13.57;;;7.03;;
81306;SDS011;70775;50.846;3.224;2023-08-17T09:57:20;15.93;;;8.15;;
81306;SDS011;70775;50.846;3.224;2023-08-17T09:59:47;15.18;;;8.10;;
81306;SDS011;70775;50.846;3.224;2023-08-17T10:02:19;19.77;;;8.68;;
81306;SDS011;70775;50.846;3.224;2023-08-17T10:04:52;18.27;;;7.93;;
81306;SDS011;70775;50.846;3.224;2023-08-17T10:07:18;15.38;;;9.00;;
81306;SDS011;70775;50.846;3.224;2023-08-17T10:15:57;13.00;;;7.72;;
81306;SDS011;70775;50.846;3.224;2023-08-17T10:21:21;13.25;;;7.47;;
81306;SDS011;70775;50.846;3.224;2023-08-17T10:23:52;13.30;;;7.68;;
81306;SDS011;70775;50.846;3.224;2023-08-17T10:26:18;11.43;;;7.10;;
81306;SDS011;70775;50.846;3.224;2023-08-17T10:28:45;15.25;;;8.35;;
81306;SDS011;70775;50.846;3.224;2023-08-17T10:31:11;15.40;;;7.75;;
81306;SDS011;70775;50.846;3.224;2023-08-17T10:33:38;15.98;;;8.18;;
81306;SDS011;70775;50.846;3.224;2023-08-17T10:36:07;12.93;;;8.45;;
81306;SDS011;70775;50.846;3.224;2023-08-17T10:38:33;11.95;;;7.95;;
81306;SDS011;70775;50.846;3.224;2023-08-17T10:41:16;15.43;;;8.82;;
81306;SDS011;70775;50.846;3.224;2023-08-17T10:44:03;16.73;;;9.20;;
81306;SDS011;70775;50.846;3.224;2023-08-17T10:46:32;13.80;;;8.77;;
81306;SDS011;70775;50.846;3.224;2023-08-17T10:52:08;16.13;;;9.40;;
81306;SDS011;70775;50.846;3.224;2023-08-17T10:54:41;14.50;;;9.15;;
81306;SDS011;70775;50.846;3.224;2023-08-17T11:03:00;17.80;;;9.85;;
81306;SDS011;70775;50.846;3.224;2023-08-17T11:05:48;18.20;;;11.07;;
81306;SDS011;70775;50.846;3.224;2023-08-17T11:11:30;15.13;;;10.50;;
81306;SDS011;70775;50.846;3.224;2023-08-17T11:13:56;17.90;;;11.38;;
81306;SDS011;70775;50.846;3.224;2023-08-17T11:16:22;13.15;;;10.02;;
81306;SDS011;70775;50.846;3.224;2023-08-17T11:18:48;16.20;;;12.05;;
81306;SDS011;70775;50.846;3.224;2023-08-17T11:21:14;16.40;;;11.52;;
81306;SDS011;70775;50.846;3.224;2023-08-17T11:23:54;16.15;;;11.80;;
81306;SDS011;70775;50.846;3.224;2023-08-17T11:26:34;17.05;;;11.63;;
81306;SDS011;70775;50.846;3.224;2023-08-17T11:29:03;17.67;;;13.02;;
81306;SDS011;70775;50.846;3.224;2023-08-17T11:31:46;16.02;;;12.23;;
81306;SDS011;70775;50.846;3.224;2023-08-17T11:34:15;15.95;;;11.07;;
81306;SDS011;70775;50.846;3.224;2023-08-17T11:36:41;16.83;;;13.23;;
81306;SDS011;70775;50.846;3.224;2023-08-17T11:39:06;21.38;;;11.75;;
81306;SDS011;70775;50.846;3.224;2023-08-17T11:47:35;18.15;;;12.45;;
81306;SDS011;70775;50.846;3.224;2023-08-17T11:50:04;19.02;;;13.07;;
81306;SDS011;70775;50.846;3.224;2023-08-17T11:52:46;15.73;;;11.75;;
81306;SDS011;70775;50.846;3.224;2023-08-17T11:55:25;15.05;;;11.80;;
81306;SDS011;70775;50.846;3.224;2023-08-17T11:57:51;16.25;;;11.75;;
81306;SDS011;70775;50.846;3.224;2023-08-17T12:00:18;17.08;;;12.65;;
81306;SDS011;70775;50.846;3.224;2023-08-17T12:06:10;16.33;;;12.75;;
81306;SDS011;70775;50.846;3.224;2023-08-17T12:08:41;18.38;;;13.70;;
81306;SDS011;70775;50.846;3.224;2023-08-17T12:11:11;18.25;;;13.88;;
81306;SDS011;70775;50.846;3.224;2023-08-17T12:19:39;14.70;;;11.30;;
81306;SDS011;70775;50.846;3.224;2023-08-17T12:25:30;17.20;;;12.30;;
81306;SDS011;70775;50.846;3.224;2023-08-17T12:30:55;15.95;;;12.68;;
81306;SDS011;70775;50.846;3.224;2023-08-17T12:33:26;15.10;;;13.30;;
81306;SDS011;70775;50.846;3.224;2023-08-17T12:35:52;16.38;;;12.93;;
81306;SDS011;70775;50.846;3.224;2023-08-17T12:38:17;18.55;;;13.57;;
81306;SDS011;70775;50.846;3.224;2023-08-17T12:40:43;21.95;;;14.23;;
81306;SDS011;70775;50.846;3.224;2023-08-17T12:43:09;19.08;;;14.88;;
81306;SDS011;70775;50.846;3.224;2023-08-17T12:45:34;20.55;;;15.77;;
81306;SDS011;70775;50.846;3.224;2023-08-17T12:48:00;32.13;;;17.17;;
81306;SDS011;70775;50.846;3.224;2023-08-17T12:50:25;23.10;;;17.40;;
81306;SDS011;70775;50.846;3.224;2023-08-17T12:55:36;19.33;;;14.93;;
81306;SDS011;70775;50.846;3.224;2023-08-17T12:58:01;19.88;;;14.55;;
81306;SDS011;70775;50.846;3.224;2023-08-17T13:00:34;21.20;;;15.02;;
81306;SDS011;70775;50.846;3.224;2023-08-17T13:03:00;18.98;;;15.70;;
81306;SDS011;70775;50.846;3.224;2023-08-17T13:05:26;18.75;;;13.60;;
81306;SDS011;70775;50.846;3.224;2023-08-17T13:07:54;17.23;;;12.02;;
81306;SDS011;70775;50.846;3.224;2023-08-17T13:10:20;19.20;;;12.10;;
81306;SDS011;70775;50.846;3.224;2023-08-17T13:12:46;15.95;;;10.27;;
81306;SDS011;70775;50.846;3.224;2023-08-17T13:15:14;17.88;;;11.13;;
81306;SDS011;70775;50.846;3.224;2023-08-17T13:23:00;17.55;;;10.80;;
81306;SDS011;70775;50.846;3.224;2023-08-17T13:25:26;14.15;;;9.43;;
81306;SDS011;70775;50.846;3.224;2023-08-17T13:28:02;13.60;;;9.93;;
81306;SDS011;70775;50.846;3.224;2023-08-17T13:30:28;13.48;;;11.10;;
81306;SDS011;70775;50.846;3.224;2023-08-17T13:32:58;15.60;;;9.90;;
81306;SDS011;70775;50.846;3.224;2023-08-17T13:38:46;19.42;;;14.23;;
81306;SDS011;70775;50.846;3.224;2023-08-17T13:47:56;20.65;;;16.33;;
81306;SDS011;70775;50.846;3.224;2023-08-17T13:53:29;18.38;;;15.18;;
81306;SDS011;70775;50.846;3.224;2023-08-17T13:55:55;17.70;;;14.45;;
81306;SDS011;70775;50.846;3.224;2023-08-17T13:58:21;18.73;;;15.05;;
81306;SDS011;70775;50.846;3.224;2023-08-17T14:00:46;21.15;;;15.55;;
81306;SDS011;70775;50.846;3.224;2023-08-17T14:03:12;17.40;;;14.38;;
81306;SDS011;70775;50.846;3.224;2023-08-17T14:09:00;16.95;;;14.35;;
81306;SDS011;70775;50.846;3.224;2023-08-17T14:11:27;18.10;;;13.95;;
81306;SDS011;70775;50.846;3.224;2023-08-17T14:13:55;16.67;;;14.32;;
81306;SDS011;70775;50.846;3.224;2023-08-17T14:16:21;16.48;;;13.93;;
81306;SDS011;70775;50.846;3.224;2023-08-17T14:18:46;17.52;;;14.80;;
81306;SDS011;70775;50.846;3.224;2023-08-17T14:21:12;19.80;;;14.10;;
81306;SDS011;70775;50.846;3.224;2023-08-17T14:23:37;16.85;;;13.70;;
81306;SDS011;70775;50.846;3.224;2023-08-17T14:26:04;17.95;;;13.18;;
81306;SDS011;70775;50.846;3.224;2023-08-17T14:28:37;16.95;;;14.85;;
81306;SDS011;70775;50.846;3.224;2023-08-17T14:37:21;18.73;;;15.02;;
81306;SDS011;70775;50.846;3.224;2023-08-17T14:39:58;21.88;;;16.17;;
81306;SDS011;70775;50.846;3.224;2023-08-17T14:42:24;21.63;;;17.27;;
81306;SDS011;70775;50.846;3.224;2023-08-17T14:55:44;23.33;;;16.98;;
81306;SDS011;70775;50.846;3.224;2023-08-17T14:58:09;22.27;;;17.52;;
81306;SDS011;70775;50.846;3.224;2023-08-17T15:00:43;25.02;;;18.65;;
81306;SDS011;70775;50.846;3.224;2023-08-17T15:08:57;21.55;;;18.13;;
81306;SDS011;70775;50.846;3.224;2023-08-17T15:11:22;21.92;;;19.10;;
81306;SDS011;70775;50.846;3.224;2023-08-17T15:13:48;22.48;;;20.08;;
81306;SDS011;70775;50.846;3.224;2023-08-17T15:16:14;23.67;;;20.30;;
81306;SDS011;70775;50.846;3.224;2023-08-17T15:22:09;25.10;;;21.60;;
81306;SDS011;70775;50.846;3.224;2023-08-17T15:24:37;23.63;;;20.13;;
81306;SDS011;70775;50.846;3.224;2023-08-17T15:27:02;24.35;;;20.75;;
81306;SDS011;70775;50.846;3.224;2023-08-17T15:29:29;23.55;;;20.38;;
81306;SDS011;70775;50.846;3.224;2023-08-17T15:31:55;23.20;;;19.77;;
81306;SDS011;70775;50.846;3.224;2023-08-17T15:34:20;23.42;;;19.90;;
81306;SDS011;70775;50.846;3.224;2023-08-17T15:36:46;24.25;;;20.20;;
81306;SDS011;70775;50.846;3.224;2023-08-17T15:41:55;23.83;;;18.48;;
81306;SDS011;70775;50.846;3.224;2023-08-17T15:44:21;24.65;;;19.88;;
81306;SDS011;70775;50.846;3.224;2023-08-17T15:46:47;19.58;;;17.48;;
81306;SDS011;70775;50.846;3.224;2023-08-17T15:49:12;17.70;;;15.68;;
81306;SDS011;70775;50.846;3.224;2023-08-17T15:51:38;18.33;;;15.98;;
81306;SDS011;70775;50.846;3.224;2023-08-17T15:54:05;20.30;;;17.75;;
81306;SDS011;70775;50.846;3.224;2023-08-17T15:56:31;18.95;;;16.60;;
81306;SDS011;70775;50.846;3.224;2023-08-17T15:58:56;17.02;;;15.13;;
81306;SDS011;70775;50.846;3.224;2023-08-17T16:01:22;15.63;;;13.75;;
81306;SDS011;70775;50.846;3.224;2023-08-17T16:03:56;19.90;;;14.77;;
81306;SDS011;70775;50.846;3.224;2023-08-17T16:06:21;17.40;;;14.55;;
81306;SDS011;70775;50.846;3.224;2023-08-17T16:08:47;16.42;;;14.73;;
81306;SDS011;70775;50.846;3.224;2023-08-17T16:11:13;18.83;;;15.43;;
81306;SDS011;70775;50.846;3.224;2023-08-17T16:13:38;16.98;;;15.18;;
81306;SDS011;70775;50.846;3.224;2023-08-17T16:16:04;18.70;;;15.73;;
81306;SDS011;70775;50.846;3.224;2023-08-17T16:18:30;18.95;;;15.98;;
81306;SDS011;70775;50.846;3.224;2023-08-17T16:20:56;17.45;;;14.63;;
81306;SDS011;70775;50.846;3.224;2023-08-17T16:23:22;17.90;;;16.00;;
81306;SDS011;70775;50.846;3.224;2023-08-17T16:25:48;18.10;;;15.45;;
81306;SDS011;70775;50.846;3.224;2023-08-17T16:28:13;16.27;;;14.48;;
81306;SDS011;70775;50.846;3.224;2023-08-17T16:30:39;17.25;;;14.60;;
81306;SDS011;70775;50.846;3.224;2023-08-17T16:33:06;16.25;;;13.85;;
81306;SDS011;70775;50.846;3.224;2023-08-17T16:35:32;16.00;;;14.30;;
81306;SDS011;70775;50.846;3.224;2023-08-17T16:37:58;17.63;;;14.90;;
81306;SDS011;70775;50.846;3.224;2023-08-17T16:40:24;17.90;;;15.85;;
81306;SDS011;70775;50.846;3.224;2023-08-17T16:42:49;17.38;;;14.85;;
81306;SDS011;70775;50.846;3.224;2023-08-17T16:45:15;22.92;;;16.08;;
81306;SDS011;70775;50.846;3.224;2023-08-17T16:48:00;20.95;;;16.63;;
81306;SDS011;70775;50.846;3.224;2023-08-17T16:55:49;18.92;;;15.48;;
81306;SDS011;70775;50.846;3.224;2023-08-17T16:58:15;19.90;;;15.60;;
81306;SDS011;70775;50.846;3.224;2023-08-17T17:00:40;18.30;;;16.02;;
81306;SDS011;70775;50.846;3.224;2023-08-17T17:03:06;18.02;;;15.57;;
81306;SDS011;70775;50.846;3.224;2023-08-17T17:05:31;15.70;;;13.98;;
81306;SDS011;70775;50.846;3.224;2023-08-17T17:07:57;18.13;;;14.50;;
81306;SDS011;70775;50.846;3.224;2023-08-17T17:10:23;15.90;;;14.18;;
81306;SDS011;70775;50.846;3.224;2023-08-17T17:12:48;18.02;;;14.32;;
81306;SDS011;70775;50.846;3.224;2023-08-17T17:15:19;16.73;;;14.93;;
81306;SDS011;70775;50.846;3.224;2023-08-17T17:17:45;18.50;;;15.73;;
81306;SDS011;70775;50.846;3.224;2023-08-17T17:20:10;18.38;;;15.38;;
81306;SDS011;70775;50.846;3.224;2023-08-17T17:22:36;16.70;;;15.05;;
81306;SDS011;70775;50.846;3.224;2023-08-17T17:25:02;19.15;;;16.58;;
81306;SDS011;70775;50.846;3.224;2023-08-17T17:33:54;16.65;;;14.63;;
81306;SDS011;70775;50.846;3.224;2023-08-17T17:36:28;16.73;;;14.68;;
81306;SDS011;70775;50.846;3.224;2023-08-17T17:38:54;16.42;;;13.95;;
81306;SDS011;70775;50.846;3.224;2023-08-17T17:41:20;17.08;;;14.38;;
81306;SDS011;70775;50.846;3.224;2023-08-17T17:43:46;17.05;;;14.35;;
81306;SDS011;70775;50.846;3.224;2023-08-17T17:46:13;16.63;;;14.48;;
81306;SDS011;70775;50.846;3.224;2023-08-17T17:48:38;17.58;;;14.50;;
81306;SDS011;70775;50.846;3.224;2023-08-17T17:51:04;21.27;;;13.77;;
81306;SDS011;70775;50.846;3.224;2023-08-17T18:02:42;18.52;;;14.23;;
81306;SDS011;70775;50.846;3.224;2023-08-17T18:05:13;16.38;;;13.30;;
81306;SDS011;70775;50.846;3.224;2023-08-17T18:07:41;16.40;;;14.55;;
81306;SDS011;70775;50.846;3.224;2023-08-17T18:10:22;17.30;;;14.40;;